createdAt,value
2018-07-26T00:01:06.297Z,92.50
2018-07-26T00:03:35.696Z,92.60
2018-07-26T00:06:05.245Z,93.20
2018-07-26T00:08:34.666Z,93.50
2018-07-26T00:11:04.065Z,93.60
2018-07-26T00:13:33.422Z,93.70
2018-07-26T00:16:02.896Z,93.90
2018-07-26T00:18:32.330Z,94.00
2018-07-26T00:21:01.774Z,94.30
2018-07-26T00:23:31.232Z,94.60
2018-07-26T00:26:00.650Z,94.90
2018-07-26T00:28:30.362Z,95.20
2018-07-26T00:38:26.485Z,95.70
2018-07-26T00:40:55.995Z,95.80
2018-07-26T00:43:25.528Z,95.80
2018-07-26T00:45:55.302Z,95.90
2018-07-26T00:48:24.811Z,96.10
2018-07-26T00:50:54.341Z,96.50
2018-07-26T00:53:23.718Z,96.50
2018-07-26T00:55:53.119Z,97.00
2018-07-26T00:58:22.546Z,97.20
2018-07-26T01:00:51.941Z,97.40
2018-07-26T01:03:21.419Z,97.50
2018-07-26T01:05:50.793Z,97.50
2018-07-26T01:10:49.130Z,97.80
2018-07-26T01:13:18.550Z,98.00
2018-07-26T01:15:47.915Z,98.30
2018-07-26T01:18:17.364Z,98.50
2018-07-26T01:20:46.815Z,98.90
2018-07-26T01:23:16.234Z,99.70
2018-07-26T01:25:45.660Z,99.90
2018-07-26T01:28:15.113Z,99.90
2018-07-26T01:33:13.546Z,99.90
2018-07-26T01:35:43.026Z,99.90
2018-07-26T01:38:12.460Z,99.90
2018-07-26T01:40:41.842Z,99.90
2018-07-26T01:44:20.904Z,99.90
2018-07-26T01:46:50.373Z,99.90
2018-07-26T01:49:19.818Z,99.90
2018-07-26T01:51:49.222Z,99.90
2018-07-26T01:54:18.697Z,99.90
2018-07-26T01:56:48.082Z,99.90
2018-07-26T01:59:17.500Z,99.90
2018-07-26T02:01:46.946Z,99.90
2018-07-26T02:04:16.335Z,99.90
2018-07-26T02:06:45.759Z,99.90
2018-07-26T02:09:15.104Z,99.90
2018-07-26T02:11:44.479Z,99.90
2018-07-26T02:14:18.936Z,99.90
2018-07-26T02:16:48.333Z,99.90
2018-07-26T02:19:17.746Z,99.90
2018-07-26T02:21:47.169Z,99.90
2018-07-26T02:24:16.624Z,99.90
2018-07-26T02:26:46.080Z,99.90
2018-07-26T02:29:15.492Z,99.90
2018-07-26T02:31:44.913Z,99.90
2018-07-26T02:36:43.218Z,99.90
2018-07-26T02:41:41.389Z,99.90
2018-07-26T02:44:10.821Z,99.90
2018-07-26T02:46:40.236Z,99.90
2018-07-26T02:49:09.668Z,99.90
2018-07-26T02:51:39.075Z,99.90
2018-07-26T02:54:08.426Z,99.90
2018-07-26T02:56:37.782Z,99.90
2018-07-26T02:59:07.273Z,99.90
2018-07-26T03:01:36.694Z,99.90
2018-07-26T03:04:06.407Z,99.90
2018-07-26T03:09:06.788Z,99.90
2018-07-26T03:11:36.179Z,99.90
2018-07-26T03:16:34.543Z,99.90
2018-07-26T03:19:04.118Z,99.90
2018-07-26T03:21:33.597Z,99.90
2018-07-26T03:24:03.102Z,99.90
2018-07-26T03:26:32.566Z,99.90
2018-07-26T03:29:02.088Z,99.90
2018-07-26T03:34:00.355Z,99.90
2018-07-26T03:36:29.875Z,99.90
2018-07-26T03:38:59.316Z,99.90
2018-07-26T03:41:28.772Z,99.90
2018-07-26T03:43:58.184Z,99.90
2018-07-26T03:46:27.585Z,99.90
2018-07-26T03:48:57.027Z,99.90
2018-07-26T03:51:26.423Z,99.90
2018-07-26T03:53:55.996Z,99.90
2018-07-26T03:56:25.430Z,99.90
2018-07-26T03:58:54.816Z,99.90
2018-07-26T04:03:53.093Z,99.90
2018-07-26T04:06:22.777Z,99.90
2018-07-26T04:08:52.430Z,99.90
2018-07-26T04:16:19.558Z,99.90
2018-07-26T04:18:48.991Z,99.90
2018-07-26T04:21:18.418Z,99.90
2018-07-26T04:26:16.676Z,99.90
2018-07-26T04:28:46.138Z,99.90
2018-07-26T04:31:15.569Z,99.90
2018-07-26T04:33:44.944Z,99.90
2018-07-26T04:36:14.367Z,99.90
2018-07-26T04:38:43.806Z,99.90
2018-07-26T04:41:13.412Z,99.90
2018-07-26T04:43:42.761Z,99.90
2018-07-26T04:46:12.207Z,99.90
2018-07-26T04:48:41.667Z,99.90
2018-07-26T04:51:11.067Z,99.90
2018-07-26T04:53:40.439Z,99.90
2018-07-26T04:56:10.083Z,99.90
2018-07-26T04:58:39.464Z,99.90
2018-07-26T05:03:37.842Z,99.90
2018-07-26T05:06:07.385Z,99.90
2018-07-26T05:08:36.846Z,99.90
2018-07-26T05:11:06.436Z,99.90
2018-07-26T05:13:35.845Z,99.90
2018-07-26T05:16:05.281Z,99.90
2018-07-26T05:21:03.653Z,99.90
2018-07-26T05:23:33.012Z,99.90
2018-07-26T05:26:02.378Z,99.90
2018-07-26T05:31:00.821Z,99.90
2018-07-26T05:33:30.363Z,99.90
2018-07-26T05:38:28.600Z,99.90
2018-07-26T05:40:58.023Z,99.90
2018-07-26T05:43:27.446Z,99.90
2018-07-26T05:45:56.988Z,99.90
2018-07-26T05:48:26.422Z,99.90
2018-07-26T05:50:55.885Z,99.90
2018-07-26T05:53:25.441Z,99.90
2018-07-26T05:55:54.842Z,99.90
2018-07-26T05:58:24.345Z,99.90
2018-07-26T06:00:53.834Z,99.90
2018-07-26T06:03:23.271Z,99.90
2018-07-26T06:05:52.715Z,99.90
2018-07-26T06:13:19.991Z,99.90
2018-07-26T06:15:49.386Z,99.90
2018-07-26T06:20:47.690Z,99.90
2018-07-26T06:25:45.987Z,99.90
2018-07-26T06:30:44.409Z,99.90
2018-07-26T06:33:14.274Z,99.90
2018-07-26T06:35:43.687Z,99.90
2018-07-26T06:40:41.997Z,99.90
2018-07-26T06:43:11.410Z,99.90
2018-07-26T06:45:40.944Z,99.90
2018-07-26T06:48:10.594Z,99.90
2018-07-26T06:50:39.995Z,99.90
2018-07-26T06:53:09.568Z,99.90
2018-07-26T06:55:39.111Z,99.90
2018-07-26T07:00:37.386Z,99.90
2018-07-26T07:03:06.833Z,99.90
2018-07-26T07:05:36.287Z,99.90
2018-07-26T07:08:05.689Z,99.90
2018-07-26T07:10:35.119Z,99.90
2018-07-26T07:15:33.533Z,99.90
2018-07-26T07:18:03.004Z,99.90
2018-07-26T07:20:32.446Z,99.90
2018-07-26T07:23:01.896Z,99.90
2018-07-26T07:25:31.467Z,99.90
2018-07-26T07:28:00.895Z,99.90
2018-07-26T07:30:30.342Z,99.90
2018-07-26T07:35:28.849Z,99.90
2018-07-26T07:40:27.134Z,99.90
2018-07-26T07:45:25.536Z,99.90
2018-07-26T07:47:54.898Z,99.90
2018-07-26T07:50:24.322Z,99.90
2018-07-26T07:52:53.734Z,99.90
2018-07-26T07:55:23.244Z,99.90
2018-07-26T08:00:21.678Z,99.90
2018-07-26T08:02:51.104Z,99.90
2018-07-26T08:05:20.639Z,99.90
2018-07-26T08:07:50.105Z,99.90
2018-07-26T08:10:19.509Z,99.90
2018-07-26T08:12:49.079Z,99.90
2018-07-26T08:15:18.489Z,99.90
2018-07-26T08:17:47.866Z,99.90
2018-07-26T08:22:46.127Z,99.90
2018-07-26T08:27:44.397Z,99.90
2018-07-26T08:30:13.755Z,99.90
2018-07-26T08:35:12.105Z,99.90
2018-07-26T08:37:41.651Z,99.90
2018-07-26T08:42:40.055Z,99.90
2018-07-26T08:45:09.588Z,99.90
2018-07-26T08:47:39.008Z,99.90
2018-07-26T08:50:08.931Z,99.90
2018-07-26T08:52:38.407Z,99.90
2018-07-26T08:55:07.889Z,99.90
2018-07-26T08:57:37.452Z,99.90
2018-07-26T09:00:07.938Z,99.90
2018-07-26T09:02:37.378Z,99.90
2018-07-26T09:05:07.505Z,99.90
2018-07-26T09:07:37.030Z,99.90
2018-07-26T09:17:33.326Z,98.80
2018-07-26T09:20:02.768Z,98.70
2018-07-26T09:22:32.155Z,98.10
2018-07-26T09:25:01.848Z,97.90
2018-07-26T09:27:31.299Z,97.70
2018-07-26T09:30:00.788Z,97.40
2018-07-26T09:32:30.274Z,97.30
2018-07-26T09:34:59.774Z,97.20
2018-07-26T09:37:29.208Z,97.20
2018-07-26T09:39:58.725Z,96.90
2018-07-26T09:42:28.112Z,96.70
2018-07-26T09:44:57.554Z,96.70
2018-07-26T09:49:55.880Z,96.00
2018-07-26T09:52:25.290Z,95.90
2018-07-26T09:54:54.911Z,95.90
2018-07-26T10:02:22.542Z,95.00
2018-07-26T10:04:51.998Z,94.90
2018-07-26T10:07:21.560Z,94.80
2018-07-26T10:12:19.899Z,94.30
2018-07-26T10:14:49.313Z,94.20
2018-07-26T10:17:18.794Z,94.10
2018-07-26T10:19:48.288Z,93.40
2018-07-26T10:22:17.765Z,93.40
2018-07-26T10:24:47.266Z,93.40
2018-07-26T10:27:16.731Z,93.40
2018-07-26T10:29:46.166Z,93.40
2018-07-26T10:32:15.683Z,93.00
2018-07-26T10:37:14.037Z,92.30
2018-07-26T10:39:43.851Z,92.10
2018-07-26T10:42:13.294Z,92.00
2018-07-26T10:47:11.836Z,91.70
2018-07-26T10:49:41.315Z,91.50
2018-07-26T10:52:10.823Z,91.40
2018-07-26T10:54:41.021Z,91.40
2018-07-26T10:57:11.670Z,91.50
2018-07-26T10:59:41.140Z,91.30
2018-07-26T11:02:10.638Z,90.80
2018-07-26T11:04:40.050Z,90.90
2018-07-26T11:07:09.500Z,90.70
2018-07-26T11:09:38.969Z,90.30
2018-07-26T11:12:08.571Z,90.30
2018-07-26T11:14:38.075Z,90.30
2018-07-26T11:17:07.569Z,90.50
2018-07-26T11:19:37.024Z,90.40
2018-07-26T11:22:06.419Z,90.20
2018-07-26T11:24:35.952Z,90.50
2018-07-26T11:27:05.520Z,90.20
2018-07-26T11:29:34.955Z,90.50
2018-07-26T11:32:04.489Z,90.20
2018-07-26T11:34:33.939Z,90.20
2018-07-26T11:37:03.356Z,90.40
2018-07-26T11:39:32.819Z,90.30
2018-07-26T11:42:02.249Z,90.40
2018-07-26T11:44:31.692Z,90.30
2018-07-26T11:47:01.227Z,90.70
2018-07-26T11:49:30.587Z,91.00
2018-07-26T11:52:00.976Z,91.30
2018-07-26T11:54:30.433Z,91.70
2018-07-26T11:56:59.949Z,92.10
2018-07-26T12:01:58.472Z,92.30
2018-07-26T12:06:56.932Z,92.60
2018-07-26T12:09:26.406Z,92.70
2018-07-26T12:11:55.832Z,92.90
2018-07-26T12:14:25.377Z,93.40
2018-07-26T12:16:54.886Z,93.40
2018-07-26T12:19:24.291Z,93.70
2018-07-26T12:24:22.592Z,93.50
2018-07-26T12:29:21.228Z,92.60
2018-07-26T12:31:50.769Z,92.50
2018-07-26T12:34:20.284Z,92.20
2018-07-26T12:36:49.796Z,92.40
2018-07-26T12:41:47.999Z,91.90
2018-07-26T12:44:17.627Z,92.20
2018-07-26T12:46:47.191Z,92.40
2018-07-26T12:49:16.818Z,92.50
2018-07-26T12:54:15.301Z,92.90
2018-07-26T12:56:44.939Z,93.10
2018-07-26T12:59:14.423Z,93.20
2018-07-26T13:04:12.962Z,93.00
2018-07-26T13:06:42.508Z,92.60
2018-07-26T13:09:11.997Z,93.00
2018-07-26T13:11:41.477Z,93.00
2018-07-26T13:14:11.013Z,93.40
2018-07-26T13:16:40.519Z,93.50
2018-07-26T13:19:09.991Z,93.50
2018-07-26T13:21:39.879Z,93.50
2018-07-26T13:24:09.621Z,93.60
2018-07-26T13:26:39.067Z,93.80
2018-07-26T13:29:08.513Z,93.80
2018-07-26T13:31:37.984Z,94.10
2018-07-26T13:36:36.435Z,94.20
2018-07-26T13:39:09.542Z,94.10
2018-07-26T13:41:39.358Z,94.10
2018-07-26T13:44:08.787Z,94.50
2018-07-26T13:49:07.692Z,94.70
2018-07-26T13:54:06.320Z,95.80
2018-07-26T13:56:35.892Z,95.50
2018-07-26T13:59:07.142Z,95.40
2018-07-26T14:01:36.610Z,95.20
2018-07-26T14:04:06.278Z,95.60
2018-07-26T14:06:35.712Z,95.40
2018-07-26T14:09:07.522Z,95.70
2018-07-26T14:14:05.819Z,95.60
2018-07-26T14:16:35.294Z,96.00
2018-07-26T14:19:04.758Z,96.10
2018-07-26T14:21:34.227Z,96.50
2018-07-26T14:26:33.878Z,96.90
2018-07-26T14:29:03.504Z,96.90
2018-07-26T14:31:32.952Z,97.10
2018-07-26T14:34:02.405Z,96.90
2018-07-26T14:36:31.818Z,96.80
2018-07-26T14:39:01.291Z,97.00
2018-07-26T14:41:30.667Z,97.00
2018-07-26T14:44:00.100Z,97.20
2018-07-26T14:46:29.702Z,97.10
2018-07-26T14:48:59.238Z,97.40
2018-07-26T14:51:28.692Z,97.80
2018-07-26T14:53:58.188Z,97.70
2018-07-26T14:56:28.012Z,98.20
2018-07-26T14:58:57.794Z,98.30
2018-07-26T15:01:27.314Z,98.00
2018-07-26T15:03:56.769Z,98.00
2018-07-26T15:06:26.300Z,98.60
2018-07-26T15:08:55.724Z,98.40
2018-07-26T15:11:25.175Z,98.40
2018-07-26T15:13:54.552Z,98.40
2018-07-26T15:18:52.966Z,98.90
2018-07-26T15:21:22.542Z,98.90
2018-07-26T15:26:21.209Z,98.90
2018-07-26T15:28:50.716Z,98.90
2018-07-26T15:31:20.180Z,99.00
2018-07-26T15:33:49.566Z,98.60
2018-07-26T15:38:47.879Z,98.60
2018-07-26T15:41:17.401Z,98.50
2018-07-26T15:43:46.832Z,98.60
2018-07-26T15:46:16.263Z,98.70
2018-07-26T15:51:14.814Z,98.00
2018-07-26T15:53:44.386Z,97.50
2018-07-26T15:56:13.922Z,97.60
2018-07-26T15:58:43.318Z,97.60
2018-07-26T16:01:12.900Z,97.20
2018-07-26T16:03:42.335Z,97.10
2018-07-26T16:06:11.755Z,97.40
2018-07-26T16:08:41.141Z,97.60
2018-07-26T16:11:10.531Z,97.60
2018-07-26T16:13:39.931Z,97.50
2018-07-26T16:16:09.362Z,96.80
2018-07-26T16:18:38.875Z,97.50
2018-07-26T16:21:08.344Z,97.70
2018-07-26T16:23:37.754Z,97.90
2018-07-26T16:26:07.196Z,98.10
2018-07-26T16:28:36.802Z,98.10
2018-07-26T16:31:06.289Z,98.20
2018-07-26T16:33:35.754Z,98.10
2018-07-26T16:36:05.305Z,98.10
2018-07-26T16:38:34.724Z,98.10
2018-07-26T16:41:04.185Z,97.80
2018-07-26T16:43:33.605Z,97.40
2018-07-26T16:46:03.074Z,97.10
2018-07-26T16:48:32.500Z,97.00
2018-07-26T16:51:01.942Z,97.30
2018-07-26T16:53:31.385Z,97.30
2018-07-26T16:56:00.846Z,97.30
2018-07-26T16:58:30.410Z,97.10
2018-07-26T17:00:59.784Z,96.90
2018-07-26T17:05:58.162Z,96.90
2018-07-26T17:08:27.985Z,96.60
2018-07-26T17:10:57.525Z,96.70
2018-07-26T17:13:27.019Z,96.10
2018-07-26T17:15:56.700Z,96.80
2018-07-26T17:20:55.012Z,96.60
2018-07-26T17:23:24.475Z,97.10
2018-07-26T17:25:53.954Z,97.00
2018-07-26T17:28:23.375Z,97.20
2018-07-26T17:30:52.831Z,97.20
2018-07-26T17:33:22.237Z,97.20
2018-07-26T17:35:51.639Z,97.80
2018-07-26T17:38:21.103Z,97.30
2018-07-26T17:40:50.539Z,95.40
2018-07-26T17:43:19.970Z,95.40
2018-07-26T17:45:49.516Z,95.60
2018-07-26T17:48:19.021Z,95.90
2018-07-26T17:50:48.507Z,96.20
2018-07-26T17:53:18.004Z,95.70
2018-07-26T17:55:47.404Z,94.80
2018-07-26T17:58:16.992Z,93.40
2018-07-26T18:00:46.497Z,93.50
2018-07-26T18:03:15.948Z,92.80
2018-07-26T18:05:45.351Z,94.40
2018-07-26T18:13:12.472Z,93.30
2018-07-26T18:15:41.889Z,94.20
2018-07-26T18:18:11.340Z,95.00
2018-07-26T18:20:40.886Z,95.10
2018-07-26T18:23:10.333Z,94.70
2018-07-26T18:25:39.762Z,95.40
2018-07-26T18:30:38.090Z,96.40
2018-07-26T18:33:07.535Z,97.10
2018-07-26T18:35:36.970Z,97.60
2018-07-26T18:40:35.536Z,98.20
2018-07-26T18:43:05.133Z,98.50
2018-07-26T18:45:34.500Z,99.00
2018-07-26T18:48:03.955Z,99.10
2018-07-26T18:50:33.470Z,99.10
2018-07-26T18:53:02.907Z,99.30
2018-07-26T18:55:32.409Z,99.40
2018-07-26T18:58:01.891Z,99.50
2018-07-26T19:03:00.344Z,99.90
2018-07-26T19:05:29.992Z,99.70
2018-07-26T19:07:59.462Z,99.70
2018-07-26T19:10:28.868Z,99.90
2018-07-26T19:12:58.285Z,99.90
2018-07-26T19:15:27.703Z,99.60
2018-07-26T19:20:25.944Z,99.90
2018-07-26T19:22:55.311Z,99.90
2018-07-26T19:27:53.791Z,99.90
2018-07-26T19:32:52.226Z,99.90
2018-07-26T19:35:21.735Z,99.90
2018-07-26T19:37:51.537Z,99.90
2018-07-26T19:40:21.039Z,99.90
2018-07-26T19:42:50.455Z,99.90
2018-07-26T19:45:19.843Z,99.90
2018-07-26T19:47:49.355Z,99.90
2018-07-26T19:50:18.817Z,99.90
2018-07-26T19:52:48.235Z,99.90
2018-07-26T19:57:46.522Z,99.90
2018-07-26T20:02:44.882Z,99.90
2018-07-26T20:05:14.323Z,99.90
2018-07-26T20:07:43.834Z,99.90
2018-07-26T20:12:43.235Z,99.90
2018-07-26T20:15:12.746Z,99.90
2018-07-26T20:20:12.199Z,99.90
2018-07-26T20:22:41.875Z,99.90
2018-07-26T20:27:40.166Z,99.90
2018-07-26T20:30:10.432Z,99.90
2018-07-26T20:32:40.450Z,99.90
2018-07-26T20:35:10.688Z,99.90
2018-07-26T20:37:40.238Z,99.90
2018-07-26T20:40:11.540Z,99.90
2018-07-26T20:42:43.150Z,99.90
2018-07-26T20:45:13.365Z,99.90
2018-07-26T20:47:42.973Z,99.90
2018-07-26T20:50:12.592Z,99.90
2018-07-26T20:52:42.016Z,99.90
2018-07-26T20:55:11.659Z,99.90
2018-07-26T20:57:41.253Z,99.90
2018-07-26T21:00:12.797Z,99.90
2018-07-26T21:02:42.969Z,99.90
2018-07-26T21:05:12.971Z,99.90
2018-07-26T21:07:42.508Z,99.90
2018-07-26T21:10:11.967Z,99.90
2018-07-26T21:12:41.724Z,99.90
2018-07-26T21:15:11.221Z,99.90
2018-07-26T21:20:09.483Z,99.90
2018-07-26T21:22:38.948Z,99.90
2018-07-26T21:25:08.547Z,99.90
2018-07-26T21:27:38.153Z,99.90
2018-07-26T21:30:08.024Z,99.90
2018-07-26T21:32:38.431Z,99.90
2018-07-26T21:35:08.983Z,99.90
2018-07-26T21:37:38.466Z,99.90
2018-07-26T21:40:08.419Z,99.90
2018-07-26T21:45:07.717Z,99.90
2018-07-26T21:47:37.270Z,99.90
2018-07-26T21:50:06.818Z,99.90
2018-07-26T21:52:36.302Z,99.90
2018-07-26T21:55:05.915Z,99.90
2018-07-26T21:57:35.307Z,99.90
2018-07-26T22:00:06.826Z,99.90
2018-07-26T22:02:36.503Z,99.90
2018-07-26T22:05:06.954Z,99.90
2018-07-26T22:07:36.719Z,99.90
2018-07-26T22:10:06.760Z,99.90
2018-07-26T22:15:05.642Z,99.90
2018-07-26T22:17:35.635Z,99.90
2018-07-26T22:20:05.720Z,99.90
2018-07-26T22:25:04.063Z,99.90
2018-07-26T22:27:33.498Z,99.90
2018-07-26T22:32:31.720Z,99.90
2018-07-26T22:35:01.262Z,99.90
2018-07-26T22:37:31.587Z,99.90
2018-07-26T22:40:01.005Z,99.90
2018-07-26T22:42:30.439Z,99.90
2018-07-26T22:47:28.870Z,99.90
2018-07-26T22:49:58.247Z,99.90
2018-07-26T22:52:27.815Z,99.90
2018-07-26T22:54:57.249Z,99.90
2018-07-26T23:02:24.626Z,99.90
2018-07-26T23:04:54.147Z,99.90
2018-07-26T23:07:23.635Z,99.90
2018-07-26T23:09:53.123Z,99.90
2018-07-26T23:12:22.551Z,99.90
2018-07-26T23:17:21.075Z,99.90
2018-07-26T23:19:50.533Z,99.90
2018-07-26T23:24:48.824Z,99.90
2018-07-26T23:27:18.327Z,99.90
2018-07-26T23:29:49.064Z,99.90
2018-07-26T23:32:18.459Z,99.90
2018-07-26T23:34:47.859Z,99.90
2018-07-26T23:37:17.235Z,99.90
2018-07-26T23:39:46.668Z,99.90
2018-07-26T23:42:16.082Z,99.90
2018-07-26T23:44:45.489Z,99.90
2018-07-26T23:49:43.801Z,99.90
2018-07-26T23:52:13.185Z,99.90
2018-07-26T23:57:11.577Z,99.90
